createdAt,value
2019-03-23T00:00:52.226Z,101.03
2019-03-23T00:03:18.635Z,100.98
2019-03-23T00:05:44.896Z,101.12
2019-03-23T00:08:11.055Z,101.19
2019-03-23T00:10:37.226Z,100.98
2019-03-23T00:13:03.454Z,101.02
2019-03-23T00:15:30.048Z,100.81
2019-03-23T00:17:56.392Z,100.85
2019-03-23T00:20:22.606Z,101.08
2019-03-23T00:22:48.842Z,100.89
2019-03-23T00:25:15.482Z,101.25
2019-03-23T00:27:42.025Z,101.33
2019-03-23T00:30:10.342Z,101.33
2019-03-23T00:32:36.617Z,101.07
2019-03-23T00:35:05.279Z,100.79
2019-03-23T00:37:31.442Z,100.30
2019-03-23T00:39:57.690Z,100.17
2019-03-23T00:42:23.854Z,100.13
2019-03-23T00:44:49.943Z,100.20
2019-03-23T00:47:15.974Z,100.21
2019-03-23T00:49:42.100Z,100.01
2019-03-23T00:52:08.247Z,100.43
2019-03-23T00:54:34.370Z,100.59
2019-03-23T00:57:00.597Z,100.42
2019-03-23T00:59:26.806Z,100.55
2019-03-23T01:01:56.926Z,100.76
2019-03-23T01:04:23.032Z,100.82
2019-03-23T01:06:52.351Z,100.66
2019-03-23T01:09:17.164Z,100.52
2019-03-23T01:11:43.351Z,100.75
2019-03-23T01:14:09.469Z,100.72
2019-03-23T01:16:35.681Z,101.20
2019-03-23T01:19:01.686Z,101.43
2019-03-23T01:21:27.780Z,101.23
2019-03-23T01:23:53.976Z,101.27
2019-03-23T01:26:20.210Z,101.07
2019-03-23T01:28:46.365Z,101.14
2019-03-23T01:31:12.557Z,101.28
2019-03-23T01:33:38.799Z,101.35
2019-03-23T01:36:05.198Z,101.43
2019-03-23T01:38:31.350Z,101.32
2019-03-23T01:40:57.516Z,101.31
2019-03-23T01:43:23.710Z,101.37
2019-03-23T01:45:49.921Z,101.36
2019-03-23T01:48:16.105Z,101.30
2019-03-23T01:50:42.412Z,100.82
2019-03-23T01:53:08.885Z,100.89
2019-03-23T01:55:35.076Z,100.61
2019-03-23T01:58:01.359Z,100.43
2019-03-23T02:00:27.583Z,100.49
2019-03-23T02:02:53.674Z,100.35
2019-03-23T02:05:19.970Z,100.53
2019-03-23T02:07:46.195Z,100.49
2019-03-23T02:10:12.635Z,100.62
2019-03-23T02:12:38.931Z,100.38
2019-03-23T02:15:06.967Z,100.20
2019-03-23T02:17:33.086Z,100.17
2019-03-23T02:19:59.571Z,100.13
2019-03-23T02:22:25.787Z,100.26
2019-03-23T02:24:51.855Z,100.11
2019-03-23T02:27:17.910Z,100.37
2019-03-23T02:29:43.996Z,100.35
2019-03-23T02:32:10.132Z,100.33
2019-03-23T02:34:36.183Z,100.47
2019-03-23T02:37:02.332Z,100.24
2019-03-23T02:39:28.471Z,100.32
2019-03-23T02:41:54.527Z,100.87
2019-03-23T02:44:20.657Z,101.20
2019-03-23T02:46:46.715Z,101.29
2019-03-23T02:49:12.843Z,101.23
2019-03-23T02:51:39.833Z,101.00
2019-03-23T02:54:06.203Z,100.68
2019-03-23T02:56:32.315Z,100.53
2019-03-23T02:58:58.431Z,100.57
2019-03-23T03:01:24.599Z,100.30
2019-03-23T03:03:50.615Z,100.48
2019-03-23T03:06:16.654Z,100.77
2019-03-23T03:08:42.672Z,100.88
2019-03-23T03:11:08.737Z,100.83
2019-03-23T03:13:34.790Z,100.50
2019-03-23T03:16:00.935Z,100.40
2019-03-23T03:18:27.036Z,100.31
2019-03-23T03:20:53.094Z,99.98
2019-03-23T03:23:19.225Z,99.81
2019-03-23T03:25:45.394Z,100.31
2019-03-23T03:28:11.478Z,100.17
2019-03-23T03:30:37.677Z,100.42
2019-03-23T03:33:03.907Z,100.43
2019-03-23T03:35:30.027Z,100.32
2019-03-23T03:37:57.343Z,100.46
2019-03-23T03:40:23.769Z,100.27
2019-03-23T03:42:49.935Z,100.48
2019-03-23T03:45:24.171Z,100.53
2019-03-23T03:47:50.223Z,100.62
2019-03-23T03:50:16.336Z,100.58
2019-03-23T03:52:42.371Z,100.76
2019-03-23T03:55:08.493Z,100.48
2019-03-23T03:57:34.599Z,100.30
2019-03-23T04:00:00.629Z,100.11
2019-03-23T04:02:27.069Z,100.33
2019-03-23T04:04:53.237Z,100.39
2019-03-23T04:07:19.280Z,100.46
2019-03-23T04:09:45.538Z,100.20
2019-03-23T04:12:11.589Z,100.20
2019-03-23T04:14:37.645Z,100.08
2019-03-23T04:17:03.664Z,99.70
2019-03-23T04:19:29.912Z,99.64
2019-03-23T04:21:55.963Z,99.53
2019-03-23T04:24:22.117Z,99.74
2019-03-23T04:26:48.200Z,99.85
2019-03-23T04:29:14.336Z,99.79
2019-03-23T04:31:40.467Z,99.72
2019-03-23T04:34:06.493Z,99.49
2019-03-23T04:36:32.550Z,99.57
2019-03-23T04:38:58.717Z,99.67
2019-03-23T04:41:24.756Z,99.47
2019-03-23T04:43:50.823Z,99.43
2019-03-23T04:46:16.862Z,99.24
2019-03-23T04:48:42.999Z,98.93
2019-03-23T04:51:09.063Z,98.78
2019-03-23T04:53:37.888Z,99.10
2019-03-23T04:56:03.986Z,99.27
2019-03-23T04:58:30.323Z,99.06
2019-03-23T05:00:56.555Z,98.69
2019-03-23T05:03:24.893Z,98.82
2019-03-23T05:05:50.943Z,98.97
2019-03-23T05:08:17.103Z,99.24
2019-03-23T05:10:43.168Z,99.24
2019-03-23T05:13:09.319Z,98.83
2019-03-23T05:15:35.351Z,98.24
2019-03-23T05:18:01.394Z,98.06
2019-03-23T05:20:30.980Z,98.09
2019-03-23T05:23:04.675Z,97.91
2019-03-23T05:25:30.809Z,97.83
2019-03-23T05:27:56.929Z,97.74
2019-03-23T05:30:22.976Z,97.57
2019-03-23T05:32:49.086Z,97.80
2019-03-23T05:35:15.131Z,97.80
2019-03-23T05:37:41.863Z,97.99
2019-03-23T05:40:08.714Z,97.86
2019-03-23T05:42:34.739Z,97.73
2019-03-23T05:45:00.759Z,97.82
2019-03-23T05:47:26.818Z,97.98
2019-03-23T05:49:53.296Z,97.94
2019-03-23T05:52:19.439Z,97.85
2019-03-23T05:54:45.768Z,97.84
2019-03-23T05:57:12.025Z,97.96
2019-03-23T05:59:38.073Z,98.11
2019-03-23T06:02:04.139Z,98.47
2019-03-23T06:04:30.269Z,98.56
2019-03-23T06:06:56.518Z,98.43
2019-03-23T06:09:22.570Z,98.47
2019-03-23T06:11:48.579Z,98.26
2019-03-23T06:14:14.591Z,97.82
2019-03-23T06:16:40.596Z,97.89
2019-03-23T06:19:09.321Z,97.28
2019-03-23T06:21:35.650Z,97.76
2019-03-23T06:24:01.770Z,98.20
2019-03-23T06:26:27.770Z,98.61
2019-03-23T06:28:53.839Z,98.68
2019-03-23T06:31:20.053Z,98.78
2019-03-23T06:33:46.219Z,98.65
2019-03-23T06:36:12.420Z,98.89
2019-03-23T06:38:38.557Z,98.95
2019-03-23T06:41:04.726Z,98.64
2019-03-23T06:43:32.226Z,98.56
2019-03-23T06:45:58.395Z,98.74
2019-03-23T06:48:24.730Z,98.76
2019-03-23T06:50:50.751Z,99.02
2019-03-23T06:53:16.787Z,99.37
2019-03-23T06:55:43.136Z,99.18
2019-03-23T06:58:09.444Z,99.25
2019-03-23T07:00:35.615Z,99.34
2019-03-23T07:03:01.804Z,99.07
2019-03-23T07:05:29.322Z,99.05
2019-03-23T07:07:55.735Z,98.92
2019-03-23T07:10:29.512Z,98.81
2019-03-23T07:12:55.787Z,98.75
2019-03-23T07:15:21.926Z,98.62
2019-03-23T07:17:51.951Z,98.50
2019-03-23T07:20:18.000Z,98.47
2019-03-23T07:22:44.032Z,98.29
2019-03-23T07:25:10.814Z,98.24
2019-03-23T07:27:37.160Z,98.21
2019-03-23T07:30:14.663Z,98.20
2019-03-23T07:32:40.898Z,98.20
2019-03-23T07:35:07.433Z,98.10
2019-03-23T07:37:33.555Z,98.09
2019-03-23T07:40:02.678Z,98.05
2019-03-23T07:42:28.698Z,97.98
2019-03-23T07:44:54.723Z,98.34
2019-03-23T07:47:20.746Z,98.05
2019-03-23T07:49:46.744Z,98.99
2019-03-23T07:52:12.801Z,98.55
2019-03-23T07:54:38.922Z,97.95
2019-03-23T07:57:05.047Z,98.35
2019-03-23T07:59:31.336Z,98.11
2019-03-23T08:01:58.570Z,98.05
2019-03-23T08:04:24.642Z,97.69
2019-03-23T08:06:50.676Z,97.61
2019-03-23T08:09:20.595Z,96.91
2019-03-23T08:11:44.753Z,97.12
2019-03-23T08:14:10.794Z,96.99
2019-03-23T08:16:37.150Z,97.59
2019-03-23T08:19:03.367Z,97.68
2019-03-23T08:21:29.455Z,97.71
2019-03-23T08:23:55.492Z,98.10
2019-03-23T08:26:21.653Z,97.84
2019-03-23T08:28:47.734Z,97.58
2019-03-23T08:31:13.781Z,98.18
2019-03-23T08:33:39.923Z,98.53
2019-03-23T08:36:06.087Z,98.61
2019-03-23T08:38:32.378Z,98.12
2019-03-23T08:40:58.399Z,98.28
2019-03-23T08:43:24.827Z,97.98
2019-03-23T08:45:50.953Z,98.13
2019-03-23T08:48:17.077Z,97.97
2019-03-23T08:50:43.219Z,97.62
2019-03-23T08:53:09.258Z,97.48
2019-03-23T08:55:35.286Z,96.95
2019-03-23T08:58:01.354Z,97.21
2019-03-23T09:00:27.373Z,97.72
2019-03-23T09:02:53.499Z,97.74
2019-03-23T09:05:19.554Z,96.99
2019-03-23T09:07:45.682Z,96.58
2019-03-23T09:10:11.691Z,96.40
2019-03-23T09:12:37.714Z,95.51
2019-03-23T09:15:06.098Z,95.42
2019-03-23T09:17:32.141Z,94.99
2019-03-23T09:19:58.226Z,94.99
2019-03-23T09:22:24.250Z,94.73
2019-03-23T09:24:50.317Z,95.22
2019-03-23T09:27:16.462Z,95.25
2019-03-23T09:29:43.689Z,94.93
2019-03-23T09:32:09.778Z,94.22
2019-03-23T09:34:35.831Z,94.39
2019-03-23T09:37:01.886Z,94.05
2019-03-23T09:39:27.909Z,93.45
2019-03-23T09:41:54.130Z,92.78
2019-03-23T09:44:20.225Z,92.48
2019-03-23T09:46:46.261Z,91.99
2019-03-23T09:49:12.671Z,91.87
2019-03-23T09:51:39.703Z,90.81
2019-03-23T09:54:05.837Z,90.53
2019-03-23T09:56:31.925Z,90.74
2019-03-23T09:58:57.978Z,89.65
2019-03-23T10:01:24.453Z,89.82
2019-03-23T10:03:50.579Z,88.04
2019-03-23T10:06:16.603Z,87.96
2019-03-23T10:08:46.470Z,87.92
2019-03-23T10:11:11.738Z,87.69
2019-03-23T10:13:37.914Z,87.62
2019-03-23T10:16:03.913Z,87.75
2019-03-23T10:18:29.904Z,87.63
2019-03-23T10:20:55.986Z,87.02
2019-03-23T10:23:22.107Z,86.61
2019-03-23T10:25:48.145Z,85.12
2019-03-23T10:28:15.120Z,84.61
2019-03-23T10:30:41.243Z,85.01
2019-03-23T10:33:07.258Z,84.92
2019-03-23T10:35:33.591Z,84.44
2019-03-23T10:37:59.652Z,84.59
2019-03-23T10:40:32.353Z,84.98
2019-03-23T10:42:53.639Z,84.13
2019-03-23T10:45:19.751Z,83.68
2019-03-23T10:47:46.006Z,83.12
2019-03-23T10:50:12.305Z,83.33
2019-03-23T10:52:38.351Z,82.79
2019-03-23T10:55:05.234Z,82.46
2019-03-23T10:57:31.326Z,82.33
2019-03-23T10:59:57.357Z,82.00
2019-03-23T11:02:23.430Z,82.56
2019-03-23T11:04:49.463Z,83.04
2019-03-23T11:07:15.561Z,84.39
2019-03-23T11:09:41.688Z,84.21
2019-03-23T11:12:07.759Z,84.04
2019-03-23T11:14:33.978Z,84.18
2019-03-23T11:17:00.089Z,83.92
2019-03-23T11:19:26.275Z,84.14
2019-03-23T11:21:52.619Z,84.76
2019-03-23T11:24:18.772Z,84.53
2019-03-23T11:26:44.925Z,85.21
2019-03-23T11:29:11.279Z,85.28
2019-03-23T11:31:37.640Z,86.23
2019-03-23T11:34:04.001Z,86.33
2019-03-23T11:36:30.730Z,86.93
2019-03-23T11:38:58.333Z,87.33
2019-03-23T11:41:24.593Z,86.22
2019-03-23T11:43:50.967Z,85.53
2019-03-23T11:46:17.319Z,85.98
2019-03-23T11:48:43.598Z,84.71
2019-03-23T11:51:09.926Z,85.01
2019-03-23T11:53:36.773Z,85.46
2019-03-23T11:56:03.623Z,84.66
2019-03-23T11:58:29.822Z,85.03
2019-03-23T12:00:55.947Z,84.84
2019-03-23T12:03:22.669Z,84.69
2019-03-23T12:05:49.098Z,84.28
2019-03-23T12:08:18.017Z,83.17
2019-03-23T12:10:44.208Z,84.15
2019-03-23T12:13:10.414Z,82.71
2019-03-23T12:15:36.640Z,83.69
2019-03-23T12:18:03.135Z,83.86
2019-03-23T12:20:29.604Z,83.15
2019-03-23T12:22:55.864Z,83.15
2019-03-23T12:25:22.021Z,83.31
2019-03-23T12:27:48.250Z,83.70
2019-03-23T12:30:15.949Z,83.38
2019-03-23T12:32:42.219Z,82.59
2019-03-23T12:35:08.820Z,82.78
2019-03-23T12:37:35.158Z,82.45
2019-03-23T12:40:01.378Z,81.80
2019-03-23T12:42:27.526Z,81.99
2019-03-23T12:44:54.014Z,81.72
2019-03-23T12:47:20.187Z,81.44
2019-03-23T12:49:46.528Z,81.55
2019-03-23T12:52:12.695Z,82.27
2019-03-23T12:54:39.019Z,81.25
2019-03-23T12:57:05.380Z,80.87
2019-03-23T12:59:32.929Z,79.50
2019-03-23T13:01:59.280Z,78.74
2019-03-23T13:04:25.401Z,77.71
2019-03-23T13:06:51.668Z,78.54
2019-03-23T13:09:17.759Z,76.57
2019-03-23T13:11:43.884Z,74.87
2019-03-23T13:14:10.023Z,73.53
2019-03-23T13:16:36.186Z,72.53
2019-03-23T13:19:02.370Z,72.78
2019-03-23T13:21:28.498Z,72.20
2019-03-23T13:23:54.597Z,71.33
2019-03-23T13:26:20.714Z,67.31
2019-03-23T13:28:46.771Z,66.99
2019-03-23T13:31:12.861Z,66.47
2019-03-23T13:33:40.013Z,65.05
2019-03-23T13:36:06.115Z,65.74
2019-03-23T13:38:32.439Z,65.08
2019-03-23T13:40:58.907Z,64.88
2019-03-23T13:43:24.994Z,65.15
2019-03-23T13:45:51.089Z,67.39
2019-03-23T13:48:17.218Z,67.18
2019-03-23T13:50:43.350Z,66.81
2019-03-23T13:53:09.434Z,67.54
2019-03-23T13:55:35.629Z,68.28
2019-03-23T13:58:13.338Z,68.01
2019-03-23T14:00:40.032Z,67.94
2019-03-23T14:03:06.938Z,68.02
2019-03-23T14:05:33.078Z,67.73
2019-03-23T14:07:59.162Z,69.33
2019-03-23T14:10:25.749Z,69.08
2019-03-23T14:12:51.887Z,69.28
2019-03-23T14:15:17.886Z,68.92
2019-03-23T14:17:44.349Z,69.95
2019-03-23T14:20:11.905Z,69.92
2019-03-23T14:22:38.150Z,70.13
2019-03-23T14:25:05.530Z,71.05
2019-03-23T14:27:31.870Z,70.90
2019-03-23T14:29:58.214Z,70.22
2019-03-23T14:32:24.709Z,71.30
2019-03-23T14:34:50.791Z,71.42
2019-03-23T14:37:16.797Z,70.66
2019-03-23T14:39:42.884Z,70.96
2019-03-23T14:42:09.481Z,69.82
2019-03-23T14:44:39.608Z,70.62
2019-03-23T14:47:05.774Z,70.29
2019-03-23T14:49:31.949Z,71.22
2019-03-23T14:51:58.284Z,72.29
2019-03-23T14:54:24.554Z,72.11
2019-03-23T14:56:50.630Z,72.69
2019-03-23T14:59:16.766Z,70.96
2019-03-23T15:01:42.861Z,71.48
2019-03-23T15:04:08.923Z,72.82
2019-03-23T15:06:34.978Z,72.72
2019-03-23T15:09:01.164Z,73.36
2019-03-23T15:11:27.391Z,73.26
2019-03-23T15:13:53.674Z,72.29
2019-03-23T15:16:19.722Z,72.35
2019-03-23T15:18:45.895Z,72.59
2019-03-23T15:21:12.208Z,73.72
2019-03-23T15:23:38.696Z,74.39
2019-03-23T15:26:05.275Z,74.82
2019-03-23T15:28:32.774Z,75.42
2019-03-23T15:30:58.847Z,75.45
2019-03-23T15:33:25.000Z,76.42
2019-03-23T15:35:51.096Z,76.53
2019-03-23T15:38:17.211Z,77.00
2019-03-23T15:40:43.239Z,76.55
2019-03-23T15:43:09.272Z,76.07
2019-03-23T15:45:35.392Z,76.10
2019-03-23T15:48:01.546Z,75.25
2019-03-23T15:50:27.637Z,73.75
2019-03-23T15:52:53.810Z,72.81
2019-03-23T15:55:19.956Z,72.78
2019-03-23T15:57:46.086Z,73.72
2019-03-23T16:00:12.938Z,73.82
2019-03-23T16:02:39.463Z,72.72
2019-03-23T16:05:06.853Z,73.84
2019-03-23T16:07:32.974Z,74.21
2019-03-23T16:09:59.042Z,73.36
2019-03-23T16:12:34.238Z,73.15
2019-03-23T16:14:53.206Z,72.70
2019-03-23T16:17:19.532Z,72.30
2019-03-23T16:19:45.726Z,71.96
2019-03-23T16:22:11.891Z,71.76
2019-03-23T16:24:38.017Z,71.43
2019-03-23T16:27:04.306Z,71.67
2019-03-23T16:29:30.449Z,72.88
2019-03-23T16:31:56.526Z,71.17
2019-03-23T16:34:22.839Z,70.99
2019-03-23T16:36:49.027Z,70.37
2019-03-23T16:39:15.430Z,72.12
2019-03-23T16:41:41.514Z,72.54
2019-03-23T16:44:07.555Z,72.82
2019-03-23T16:46:33.740Z,72.53
2019-03-23T16:49:00.465Z,71.48
2019-03-23T16:51:26.580Z,72.78
2019-03-23T16:53:52.759Z,71.47
2019-03-23T16:56:18.986Z,72.46
2019-03-23T16:58:45.211Z,72.26
2019-03-23T17:01:11.723Z,72.40
2019-03-23T17:03:38.358Z,71.93
2019-03-23T17:06:04.604Z,71.95
2019-03-23T17:08:30.743Z,71.93
2019-03-23T17:10:57.304Z,73.01
2019-03-23T17:13:23.613Z,73.27
2019-03-23T17:15:49.837Z,72.49
2019-03-23T17:18:16.013Z,72.93
2019-03-23T17:20:42.825Z,72.85
2019-03-23T17:23:08.983Z,73.98
2019-03-23T17:25:35.181Z,73.52
2019-03-23T17:28:01.378Z,74.88
2019-03-23T17:30:27.559Z,73.80
2019-03-23T17:32:53.753Z,73.88
2019-03-23T17:35:19.955Z,73.25
2019-03-23T17:37:45.989Z,73.20
2019-03-23T17:40:12.419Z,72.82
2019-03-23T17:42:38.584Z,73.44
2019-03-23T17:45:05.818Z,73.73
2019-03-23T17:47:31.906Z,72.41
2019-03-23T17:49:58.275Z,72.78
2019-03-23T17:52:24.294Z,72.56
2019-03-23T17:54:50.404Z,73.14
2019-03-23T17:57:16.468Z,73.59
2019-03-23T17:59:42.560Z,73.47
2019-03-23T18:02:08.922Z,73.19
2019-03-23T18:04:35.032Z,72.64
2019-03-23T18:07:01.044Z,72.78
2019-03-23T18:09:27.182Z,73.43
2019-03-23T18:11:53.315Z,72.82
2019-03-23T18:14:20.492Z,73.67
2019-03-23T18:16:46.762Z,73.15
2019-03-23T18:19:13.192Z,72.73
2019-03-23T18:21:39.221Z,72.08
2019-03-23T18:24:05.261Z,71.28
2019-03-23T18:26:32.815Z,71.22
2019-03-23T18:28:58.842Z,70.72
2019-03-23T18:31:24.882Z,69.43
2019-03-23T18:33:51.082Z,69.31
2019-03-23T18:36:17.222Z,68.86
2019-03-23T18:38:43.462Z,67.92
2019-03-23T18:41:09.491Z,66.87
2019-03-23T18:43:35.664Z,66.15
2019-03-23T18:46:01.744Z,65.69
2019-03-23T18:48:27.893Z,65.68
2019-03-23T18:50:54.196Z,65.33
2019-03-23T18:53:20.299Z,63.67
2019-03-23T18:55:46.638Z,64.35
2019-03-23T18:58:12.685Z,64.65
2019-03-23T19:00:41.078Z,64.74
2019-03-23T19:03:07.479Z,66.09
2019-03-23T19:05:34.278Z,63.07
2019-03-23T19:08:00.461Z,62.61
2019-03-23T19:10:46.473Z,63.45
2019-03-23T19:13:12.868Z,63.87
2019-03-23T19:15:39.309Z,64.70
2019-03-23T19:18:06.228Z,66.90
2019-03-23T19:20:32.834Z,67.15
2019-03-23T19:22:59.007Z,68.19
2019-03-23T19:25:25.445Z,68.28
2019-03-23T19:27:51.593Z,69.34
2019-03-23T19:30:18.063Z,70.33
2019-03-23T19:32:44.251Z,70.92
2019-03-23T19:35:10.519Z,72.19
2019-03-23T19:37:38.769Z,72.38
2019-03-23T19:40:05.164Z,73.41
2019-03-23T19:42:31.510Z,74.17
2019-03-23T19:44:57.676Z,74.53
2019-03-23T19:47:23.828Z,74.92
2019-03-23T19:49:49.900Z,75.39
2019-03-23T19:52:16.173Z,75.20
2019-03-23T19:54:42.428Z,75.55
2019-03-23T19:57:08.658Z,75.69
2019-03-23T19:59:36.685Z,75.75
2019-03-23T20:02:02.828Z,76.28
2019-03-23T20:04:28.873Z,76.09
2019-03-23T20:06:55.098Z,76.84
2019-03-23T20:09:22.168Z,76.42
2019-03-23T20:11:48.296Z,76.77
2019-03-23T20:14:14.340Z,76.71
2019-03-23T20:16:40.706Z,77.39
2019-03-23T20:19:07.053Z,76.67
2019-03-23T20:21:38.407Z,77.10
2019-03-23T20:24:04.552Z,77.50
2019-03-23T20:26:30.597Z,77.15
2019-03-23T20:28:56.814Z,77.55
2019-03-23T20:31:22.928Z,77.45
2019-03-23T20:33:49.107Z,77.72
2019-03-23T20:36:15.202Z,78.74
2019-03-23T20:38:41.329Z,78.22
2019-03-23T20:41:07.384Z,78.75
2019-03-23T20:43:35.610Z,79.10
2019-03-23T20:46:01.668Z,78.57
2019-03-23T20:48:27.696Z,79.19
2019-03-23T20:50:53.758Z,79.58
2019-03-23T20:53:20.096Z,79.25
2019-03-23T20:55:46.247Z,79.58
2019-03-23T20:58:12.301Z,79.70
2019-03-23T21:00:38.396Z,79.41
2019-03-23T21:03:05.079Z,79.44
2019-03-23T21:05:34.038Z,79.58
2019-03-23T21:07:59.157Z,80.03
2019-03-23T21:10:25.472Z,79.54
2019-03-23T21:12:51.521Z,80.06
2019-03-23T21:15:17.645Z,79.94
2019-03-23T21:17:51.183Z,80.06
2019-03-23T21:20:11.606Z,81.00
2019-03-23T21:22:37.773Z,84.38
2019-03-23T21:25:05.459Z,80.09
2019-03-23T21:27:31.896Z,79.90
2019-03-23T21:29:57.939Z,80.07
2019-03-23T21:32:23.969Z,80.13
2019-03-23T21:34:50.200Z,80.08
2019-03-23T21:37:16.304Z,80.09
2019-03-23T21:39:42.511Z,80.19
2019-03-23T21:42:08.622Z,80.22
2019-03-23T21:44:34.765Z,80.51
2019-03-23T21:47:02.705Z,80.70
2019-03-23T21:49:28.937Z,80.38
2019-03-23T21:51:55.072Z,80.54
2019-03-23T21:54:21.090Z,80.38
2019-03-23T21:56:47.275Z,80.23
2019-03-23T21:59:13.416Z,79.67
2019-03-23T22:01:39.554Z,80.12
2019-03-23T22:04:05.710Z,79.88
2019-03-23T22:06:32.269Z,79.59
2019-03-23T22:08:58.878Z,79.58
2019-03-23T22:11:25.102Z,79.35
2019-03-23T22:13:51.274Z,79.25
2019-03-23T22:16:17.326Z,79.41
2019-03-23T22:18:43.486Z,79.29
2019-03-23T22:21:09.845Z,79.07
2019-03-23T22:23:37.330Z,79.44
2019-03-23T22:26:03.622Z,79.16
2019-03-23T22:28:29.771Z,79.29
2019-03-23T22:30:55.954Z,78.86
2019-03-23T22:33:22.188Z,78.71
2019-03-23T22:35:49.999Z,78.77
2019-03-23T22:38:16.323Z,78.38
2019-03-23T22:40:42.344Z,78.16
2019-03-23T22:43:08.766Z,77.84
2019-03-23T22:45:41.850Z,77.66
2019-03-23T22:48:10.191Z,77.48
2019-03-23T22:50:36.358Z,77.72
2019-03-23T22:53:02.507Z,77.54
2019-03-23T22:55:28.898Z,78.04
2019-03-23T22:57:55.025Z,78.03
2019-03-23T23:00:26.395Z,78.52
2019-03-23T23:02:52.655Z,78.34
2019-03-23T23:05:32.403Z,78.35
2019-03-23T23:07:56.555Z,77.93
2019-03-23T23:10:22.753Z,78.60
2019-03-23T23:12:50.988Z,78.80
2019-03-23T23:15:17.179Z,78.87
2019-03-23T23:17:44.020Z,78.78
2019-03-23T23:20:10.497Z,79.05
2019-03-23T23:22:39.663Z,79.43
2019-03-23T23:25:08.527Z,79.58
2019-03-23T23:27:36.595Z,79.70
2019-03-23T23:30:08.124Z,79.64
2019-03-23T23:32:35.011Z,80.09
2019-03-23T23:35:01.136Z,80.63
2019-03-23T23:37:27.172Z,80.76
2019-03-23T23:39:53.338Z,80.67
2019-03-23T23:42:19.762Z,81.57
2019-03-23T23:44:45.831Z,81.34
2019-03-23T23:47:11.958Z,82.13
2019-03-23T23:49:38.446Z,81.97
2019-03-23T23:52:04.619Z,82.03
2019-03-23T23:54:30.657Z,82.12
2019-03-23T23:56:56.770Z,82.20
2019-03-23T23:59:22.879Z,81.99
